Strona główna
METAR-TAF:

METAR-TAF

Lotnisko :

Río Cuarto, Argentyna

Szerokość geograficzna: 33-07S, Długość geograficzna: 064-14W, wysokość: 420 m

Aktualna obserwacja pogody

Raport powstał 1 godzina i 2 minut temu, godzina 22:00 UTC
Wiatr 9 kt od północny wschód
Temperatura 19°C
Wilgotność 56%
Ciśnienie 1010 hPa
Widzialność 10 km lub więcej
Brak chmur poniżej 1500 m i brak chmur cumulonimbus

METAR: SAOC 272200Z 05009KT CAVOK 19/10 Q1010

czas: 20:02 (23:02 UTC)


TAF: brakujący

Obserwacja i prognoza pogody dla ponad 4000 lotnisk (raport METAR i TAF).

Dostępne stacje oznaczono żółtymi i czerwonymi punktami na mapie.

Najedź kursorem aby zobaczyć nazwę stacji.

Kliknij aby zobaczyć obserwacje i prognozy pogody.

Aby zmienić mapę: kliknij na zielony przycisk z czarnym krzyżykiem, aby powiększyć; na zielony przycisk z myślnikiem, aby pomniejszyć; na zielone strzałki, aby przejść do map sąsiednich.


METAR-TAF: